Strona główna
METAR-TAF:

METAR-TAF

Lotnisko :

Bückeburg, Niemcy

Szerokość geograficzna: 52-17N, Długość geograficzna: 009-05E, wysokość: 70 m

Aktualna obserwacja pogody

Raport powstał 58 minut temu, godzina 07:20 UTC
Wiatr 6 kt od północny wschód
Temperatura 13°C
Wilgotność 58%
Ciśnienie 1033 hPa
Widzialność 10 km lub więcej
Mało chmury na wysokości 3000 ft

METAR: ETHB 280720Z 05006KT 9999 FEW030 13/05 Q1033 BLU+BLU+

czas: 10:18 (08:18 UTC)

Prognoza

Raport powstał 1 godzina i 18 minut temu, godzina 07:00 UTC
Prognoza ważna od 28 godzina 08 UTC do 28 godzina 17 UTC
Wiatr 8 kt od północ
Widzialność 10 km lub więcej
Mało chmury na wysokości 3000 ft

TAF: ETHB 280700Z 2808/2817 35008KT 9999 NSW FEW030

Obserwacja i prognoza pogody dla ponad 4000 lotnisk (raport METAR i TAF).

Dostępne stacje oznaczono żółtymi i czerwonymi punktami na mapie.

Najedź kursorem aby zobaczyć nazwę stacji.

Kliknij aby zobaczyć obserwacje i prognozy pogody.

Aby zmienić mapę: kliknij na zielony przycisk z czarnym krzyżykiem, aby powiększyć; na zielony przycisk z myślnikiem, aby pomniejszyć; na zielone strzałki, aby przejść do map sąsiednich.


METAR-TAF: